createdAt,value
2019-01-19T00:02:32.813Z,12.40
2019-01-19T00:05:34.199Z,13.10
2019-01-19T00:08:39.515Z,11.93
2019-01-19T00:11:54.861Z,13.13
2019-01-19T00:14:45.880Z,12.90
2019-01-19T00:17:59.583Z,11.40
2019-01-19T00:21:10.040Z,12.90
2019-01-19T00:24:12.363Z,13.27
2019-01-19T00:27:27.079Z,14.17
2019-01-19T00:30:54.259Z,11.77
2019-01-19T00:33:48.076Z,12.80
2019-01-19T00:36:43.462Z,13.30
2019-01-19T00:39:52.322Z,13.17
2019-01-19T00:42:53.442Z,13.90
2019-01-19T00:46:00.395Z,12.37
2019-01-19T00:49:09.009Z,12.23
2019-01-19T00:52:19.159Z,12.27
2019-01-19T00:55:34.722Z,13.63
2019-01-19T00:58:33.076Z,12.07
2019-01-19T01:01:38.983Z,13.87
2019-01-19T01:04:36.519Z,12.03
2019-01-19T01:16:04.921Z,11.10
2019-01-19T01:22:14.538Z,12.33
2019-01-19T01:34:32.248Z,11.70
2019-01-19T01:40:57.041Z,12.73
2019-01-19T01:43:50.004Z,11.60
2019-01-19T01:49:26.962Z,11.70
2019-01-19T01:52:08.374Z,10.90
2019-01-19T01:55:02.689Z,11.97
2019-01-19T01:58:10.920Z,11.33
2019-01-19T02:04:20.420Z,11.97
2019-01-19T02:07:29.056Z,11.03
2019-01-19T02:10:37.374Z,11.80
2019-01-19T02:13:45.588Z,11.03
2019-01-19T02:16:44.520Z,12.53
2019-01-19T02:19:52.808Z,11.17
2019-01-19T02:23:01.158Z,11.07
2019-01-19T02:26:09.372Z,11.33
2019-01-19T02:29:18.963Z,11.70
2019-01-19T02:32:27.284Z,11.60
2019-01-19T02:35:35.528Z,11.10
2019-01-19T02:38:44.062Z,11.40
2019-01-19T02:41:54.332Z,11.60
2019-01-19T02:45:05.947Z,11.47
2019-01-19T02:47:47.630Z,12.37
2019-01-19T02:50:29.391Z,12.17
2019-01-19T02:53:12.940Z,11.27
2019-01-19T02:55:54.794Z,11.13
2019-01-19T03:01:56.994Z,11.47
2019-01-19T03:05:05.634Z,10.87
2019-01-19T03:08:14.436Z,12.17
2019-01-19T03:11:22.738Z,12.20
2019-01-19T03:14:31.858Z,12.10
2019-01-19T03:17:34.437Z,12.10
2019-01-19T03:20:30.631Z,11.23
2019-01-19T03:23:27.373Z,12.53
2019-01-19T03:26:35.815Z,11.47
2019-01-19T03:29:50.614Z,12.17
2019-01-19T03:32:58.870Z,11.50
2019-01-19T03:36:07.695Z,10.93
2019-01-19T03:39:16.189Z,10.77
2019-01-19T03:41:58.370Z,12.10
2019-01-19T03:44:54.948Z,11.00
2019-01-19T03:48:03.772Z,11.90
2019-01-19T03:51:12.335Z,11.20
2019-01-19T03:54:20.696Z,11.17
2019-01-19T03:57:28.910Z,12.20
2019-01-19T04:00:31.419Z,11.47
2019-01-19T04:03:45.763Z,11.47
2019-01-19T04:06:57.999Z,12.40
2019-01-19T04:10:06.081Z,10.83
2019-01-19T04:13:14.616Z,11.37
2019-01-19T04:16:22.888Z,11.17
2019-01-19T04:19:19.343Z,11.37
2019-01-19T04:22:27.595Z,10.47
2019-01-19T04:25:19.247Z,10.73
2019-01-19T04:27:52.389Z,11.03
2019-01-19T04:30:31.883Z,10.77
2019-01-19T04:33:02.317Z,11.10
2019-01-19T04:35:32.718Z,11.87
2019-01-19T04:38:22.735Z,12.63
2019-01-19T04:40:53.197Z,11.27
2019-01-19T04:46:20.019Z,10.23
2019-01-19T04:49:11.747Z,10.40
2019-01-19T04:52:00.981Z,11.47
2019-01-19T04:54:50.345Z,11.20
2019-01-19T04:57:54.381Z,11.70
2019-01-19T05:00:32.362Z,10.73
2019-01-19T05:03:22.666Z,10.77
2019-01-19T05:05:53.066Z,12.03
2019-01-19T05:08:23.789Z,11.47
2019-01-19T05:11:13.547Z,11.80
2019-01-19T05:14:02.935Z,11.87
2019-01-19T05:16:52.486Z,10.97
2019-01-19T05:19:42.023Z,12.13
2019-01-19T05:22:31.338Z,11.30
2019-01-19T05:28:02.388Z,10.73
2019-01-19T05:30:52.751Z,11.37
2019-01-19T05:33:42.207Z,10.90
2019-01-19T05:36:12.977Z,10.67
2019-01-19T05:38:43.333Z,11.00
2019-01-19T05:41:13.753Z,10.93
2019-01-19T05:44:03.067Z,11.57
2019-01-19T05:46:33.842Z,11.77
2019-01-19T05:49:23.440Z,10.87
2019-01-19T05:51:53.850Z,11.27
2019-01-19T05:54:45.781Z,10.77
2019-01-19T05:57:16.443Z,10.37
2019-01-19T06:00:03.985Z,11.47
2019-01-19T06:04:59.780Z,9.97
2019-01-19T06:07:49.403Z,11.67
2019-01-19T06:10:19.898Z,11.10
2019-01-19T06:13:11.216Z,10.63
2019-01-19T06:15:41.533Z,10.87
2019-01-19T06:23:47.586Z,10.40
2019-01-19T06:26:20.303Z,10.27
2019-01-19T06:28:53.961Z,9.87
2019-01-19T06:31:24.615Z,10.83
2019-01-19T06:34:32.781Z,10.63
2019-01-19T06:37:22.302Z,9.97
2019-01-19T06:43:06.632Z,9.63
2019-01-19T06:45:59.296Z,10.60
2019-01-19T06:48:31.371Z,10.70
2019-01-19T06:51:01.794Z,10.30
2019-01-19T06:53:32.341Z,10.40
2019-01-19T06:56:21.745Z,10.77
2019-01-19T06:58:52.247Z,10.40
2019-01-19T07:01:22.579Z,11.27
2019-01-19T07:03:53.209Z,10.47
2019-01-19T07:06:25.912Z,11.30
2019-01-19T07:11:40.284Z,11.00
2019-01-19T07:14:30.357Z,11.33
2019-01-19T07:17:07.884Z,12.27
2019-01-19T07:19:57.233Z,12.57
2019-01-19T07:22:46.948Z,11.77
2019-01-19T07:25:17.271Z,11.40
2019-01-19T07:28:20.369Z,11.47
2019-01-19T07:30:58.960Z,11.33
2019-01-19T07:33:48.631Z,10.20
2019-01-19T07:36:38.114Z,11.10
2019-01-19T07:39:09.335Z,11.80
2019-01-19T07:41:50.765Z,11.70
2019-01-19T07:44:21.356Z,10.20
2019-01-19T07:46:56.110Z,10.93
2019-01-19T07:49:44.184Z,11.27
2019-01-19T07:52:15.367Z,11.40
2019-01-19T07:54:54.690Z,11.73
2019-01-19T07:57:44.036Z,10.80
2019-01-19T08:00:35.019Z,12.20
2019-01-19T08:03:06.783Z,11.57
2019-01-19T08:06:18.366Z,12.23
2019-01-19T08:09:08.742Z,12.17
2019-01-19T08:11:59.454Z,10.27
2019-01-19T08:14:30.036Z,11.10
2019-01-19T08:17:19.657Z,12.07
2019-01-19T08:22:19.382Z,11.47
2019-01-19T08:25:09.259Z,10.73
2019-01-19T08:28:01.800Z,11.53
2019-01-19T08:31:11.481Z,13.17
2019-01-19T08:33:44.236Z,12.13
2019-01-19T08:36:35.543Z,12.47
2019-01-19T08:39:25.424Z,12.10
2019-01-19T08:44:56.078Z,12.80
2019-01-19T08:47:26.430Z,12.30
2019-01-19T08:50:18.067Z,15.53
2019-01-19T08:53:07.801Z,13.10
2019-01-19T08:55:57.680Z,12.83
2019-01-19T08:58:28.840Z,13.00
2019-01-19T09:01:18.906Z,12.63
2019-01-19T09:03:56.532Z,13.27
2019-01-19T09:06:47.355Z,15.30
2019-01-19T09:09:17.648Z,15.17
2019-01-19T09:11:48.742Z,14.97
2019-01-19T09:14:19.309Z,16.10
2019-01-19T09:16:49.875Z,15.97
2019-01-19T09:19:41.114Z,15.63
2019-01-19T09:22:19.670Z,14.07
2019-01-19T09:25:12.348Z,15.27
2019-01-19T09:27:43.616Z,13.00
2019-01-19T09:30:28.930Z,14.40
2019-01-19T09:33:35.991Z,14.67
2019-01-19T09:39:35.316Z,14.47
2019-01-19T09:42:16.987Z,13.73
2019-01-19T09:44:58.637Z,14.13
2019-01-19T09:47:40.830Z,13.33
2019-01-19T09:50:13.015Z,13.30
2019-01-19T09:52:43.882Z,12.17
2019-01-19T09:55:34.350Z,12.63
2019-01-19T09:58:42.888Z,13.63
2019-01-19T10:01:32.306Z,12.37
2019-01-19T10:04:06.349Z,13.23
2019-01-19T10:06:55.616Z,18.87
2019-01-19T10:09:26.207Z,11.63
2019-01-19T10:11:56.681Z,11.80
2019-01-19T10:14:46.194Z,10.90
2019-01-19T10:17:35.810Z,10.50
2019-01-19T10:20:26.174Z,10.90
2019-01-19T10:23:08.223Z,11.20
2019-01-19T10:25:52.640Z,10.13
2019-01-19T10:28:23.513Z,10.60
2019-01-19T10:31:02.814Z,10.47
2019-01-19T10:33:55.650Z,10.70
2019-01-19T10:36:45.106Z,10.90
2019-01-19T10:45:38.371Z,10.60
2019-01-19T10:48:13.201Z,12.40
2019-01-19T10:50:43.548Z,10.13
2019-01-19T10:56:30.283Z,10.73
2019-01-19T10:59:02.273Z,11.07
2019-01-19T11:01:34.724Z,11.27
2019-01-19T11:04:25.557Z,10.27
2019-01-19T11:07:24.028Z,11.30
2019-01-19T11:09:54.683Z,11.40
2019-01-19T11:12:44.018Z,10.80
2019-01-19T11:15:15.359Z,10.87
2019-01-19T11:17:50.601Z,10.87
2019-01-19T11:20:42.707Z,12.13
2019-01-19T11:23:31.354Z,12.13
2019-01-19T11:26:04.889Z,11.77
2019-01-19T11:28:35.194Z,12.63
2019-01-19T11:31:05.792Z,12.10
2019-01-19T11:33:38.430Z,12.93
2019-01-19T11:36:08.751Z,12.63
2019-01-19T11:38:39.045Z,13.10
2019-01-19T11:41:09.568Z,11.60
2019-01-19T11:43:39.945Z,12.60
2019-01-19T11:46:10.735Z,12.23
2019-01-19T11:48:43.677Z,12.40
2019-01-19T11:51:36.231Z,12.37
2019-01-19T11:54:09.286Z,12.33
2019-01-19T12:00:21.309Z,10.90
2019-01-19T12:08:39.662Z,13.87
2019-01-19T12:11:29.062Z,12.03
2019-01-19T12:14:18.697Z,12.77
2019-01-19T12:16:58.113Z,12.30
2019-01-19T12:19:46.623Z,12.30
2019-01-19T12:22:07.158Z,12.17
2019-01-19T12:24:57.367Z,12.03
2019-01-19T12:27:29.427Z,12.97
2019-01-19T12:33:30.809Z,14.23
2019-01-19T12:36:01.781Z,13.63
2019-01-19T12:38:51.532Z,14.10
2019-01-19T12:41:35.824Z,14.67
2019-01-19T12:44:21.226Z,14.87
2019-01-19T12:46:57.122Z,14.60
2019-01-19T12:49:55.675Z,14.00
2019-01-19T12:52:48.805Z,14.77
2019-01-19T12:56:00.597Z,13.70
2019-01-19T12:59:00.001Z,14.63
2019-01-19T13:01:51.069Z,14.10
2019-01-19T13:04:46.111Z,15.30
2019-01-19T13:07:38.205Z,16.20
2019-01-19T13:13:21.113Z,15.67
2019-01-19T13:16:05.150Z,14.43
2019-01-19T13:18:59.210Z,15.17
2019-01-19T13:22:07.479Z,15.03
2019-01-19T13:28:22.796Z,14.47
2019-01-19T13:31:19.355Z,14.40
2019-01-19T13:34:28.085Z,14.23
2019-01-19T13:37:37.991Z,15.57
2019-01-19T13:49:55.669Z,14.80
2019-01-19T13:53:12.759Z,14.90
2019-01-19T13:59:40.308Z,15.30
2019-01-19T14:02:51.183Z,14.70
2019-01-19T14:05:58.737Z,13.57
2019-01-19T14:12:19.813Z,14.23
2019-01-19T14:17:44.412Z,14.17
2019-01-19T14:20:59.520Z,14.20
2019-01-19T14:23:54.583Z,13.47
2019-01-19T14:26:36.494Z,15.50
2019-01-19T14:29:46.101Z,14.30
2019-01-19T14:32:39.622Z,14.83
2019-01-19T14:35:40.734Z,14.30
2019-01-19T14:38:49.042Z,13.90
2019-01-19T14:41:33.967Z,13.60
2019-01-19T14:44:42.543Z,14.03
2019-01-19T14:48:00.592Z,13.63
2019-01-19T14:54:23.230Z,13.53
2019-01-19T14:57:45.014Z,12.63
2019-01-19T15:01:11.850Z,12.53
2019-01-19T15:04:14.020Z,11.83
2019-01-19T15:07:17.702Z,11.50
2019-01-19T15:10:38.105Z,12.80
2019-01-19T15:13:32.925Z,12.47
2019-01-19T15:16:49.254Z,11.47
2019-01-19T15:20:10.706Z,12.63
2019-01-19T15:23:19.065Z,12.27
2019-01-19T15:26:34.886Z,12.50
2019-01-19T15:29:43.628Z,12.90
2019-01-19T15:32:43.101Z,13.13
2019-01-19T15:35:51.894Z,12.47
2019-01-19T15:39:10.770Z,13.13
2019-01-19T15:42:01.342Z,12.97
2019-01-19T15:45:17.623Z,12.80
2019-01-19T15:48:14.001Z,12.47
2019-01-19T15:51:15.542Z,13.40
2019-01-19T15:54:21.569Z,11.23
2019-01-19T15:57:36.876Z,12.20
2019-01-19T16:00:42.556Z,12.00
2019-01-19T16:03:46.922Z,12.17
2019-01-19T16:06:50.212Z,12.77
2019-01-19T16:09:56.929Z,12.70
2019-01-19T16:13:06.402Z,12.93
2019-01-19T16:16:21.270Z,13.40
2019-01-19T16:19:18.400Z,13.13
2019-01-19T16:22:06.246Z,12.63
2019-01-19T16:25:19.589Z,13.10
2019-01-19T16:28:28.991Z,13.50
2019-01-19T16:32:16.363Z,13.40
2019-01-19T16:35:21.917Z,13.67
2019-01-19T16:38:32.143Z,14.07
2019-01-19T16:41:37.800Z,15.00
2019-01-19T16:44:56.104Z,15.17
2019-01-19T16:48:34.297Z,15.50
2019-01-19T16:51:33.202Z,15.03
2019-01-19T16:54:46.115Z,13.77
2019-01-19T16:58:06.529Z,13.97
2019-01-19T17:01:13.149Z,15.70
2019-01-19T17:04:06.095Z,15.13
2019-01-19T17:07:26.318Z,18.83
2019-01-19T17:10:25.131Z,16.20
2019-01-19T17:14:04.629Z,13.93
2019-01-19T17:17:27.770Z,15.43
2019-01-19T17:20:32.468Z,14.53
2019-01-19T17:23:31.336Z,14.13
2019-01-19T17:26:52.854Z,16.50
2019-01-19T17:30:09.054Z,14.70
2019-01-19T17:33:05.447Z,14.67
2019-01-19T17:36:31.749Z,14.90
2019-01-19T17:39:47.427Z,15.00
2019-01-19T17:43:07.920Z,15.87
2019-01-19T17:46:18.444Z,14.43
2019-01-19T17:49:16.799Z,15.33
2019-01-19T17:52:27.864Z,16.27
2019-01-19T17:55:35.109Z,15.60
2019-01-19T17:59:03.847Z,14.93
2019-01-19T18:02:21.514Z,16.60
2019-01-19T18:05:10.498Z,15.63
2019-01-19T18:08:53.035Z,16.50
2019-01-19T18:11:52.089Z,15.57
2019-01-19T18:15:21.090Z,16.00
2019-01-19T18:18:31.892Z,17.33
2019-01-19T18:21:25.017Z,17.23
2019-01-19T18:24:33.403Z,17.10
2019-01-19T18:28:01.986Z,17.10
2019-01-19T18:31:02.611Z,16.40
2019-01-19T18:33:54.093Z,17.67
2019-01-19T18:37:12.708Z,17.60
2019-01-19T18:40:42.130Z,18.27
2019-01-19T18:43:50.626Z,20.47
2019-01-19T18:46:42.613Z,18.40
2019-01-19T18:50:05.081Z,17.87
2019-01-19T18:52:56.572Z,18.03
2019-01-19T18:56:01.459Z,17.90
2019-01-19T18:59:04.999Z,19.37
2019-01-19T19:02:25.122Z,19.20
2019-01-19T19:05:30.155Z,21.53
2019-01-19T19:08:40.230Z,21.10
2019-01-19T19:11:54.992Z,21.20
2019-01-19T19:14:57.476Z,19.90
2019-01-19T19:18:09.823Z,20.17
2019-01-19T19:21:43.247Z,19.33
2019-01-19T19:24:45.492Z,20.83
2019-01-19T19:27:59.073Z,17.90
2019-01-19T19:30:54.755Z,19.70
2019-01-19T19:33:41.899Z,21.23
2019-01-19T19:36:53.392Z,20.83
2019-01-19T19:40:10.692Z,22.53
2019-01-19T19:43:16.410Z,20.40
2019-01-19T19:46:24.277Z,22.53
2019-01-19T19:49:25.155Z,21.50
2019-01-19T19:52:07.843Z,21.37
2019-01-19T19:54:44.951Z,20.37
2019-01-19T19:57:20.759Z,22.17
2019-01-19T19:59:56.845Z,20.97
2019-01-19T20:02:30.508Z,22.27
2019-01-19T20:05:07.517Z,22.27
2019-01-19T20:08:18.426Z,21.97
2019-01-19T20:10:31.907Z,22.43
2019-01-19T20:13:07.906Z,22.50
2019-01-19T20:15:42.471Z,22.50
2019-01-19T20:18:13.116Z,22.10
2019-01-19T20:21:07.912Z,22.67
2019-01-19T20:23:41.102Z,21.93
2019-01-19T20:26:23.825Z,22.27
2019-01-19T20:28:57.291Z,21.80
2019-01-19T20:31:36.249Z,23.03
2019-01-19T20:34:13.714Z,23.27
2019-01-19T20:36:45.327Z,22.70
2019-01-19T20:39:17.155Z,22.60
2019-01-19T20:41:49.227Z,22.90
2019-01-19T20:44:22.733Z,21.73
2019-01-19T20:46:58.678Z,23.77
2019-01-19T20:49:30.819Z,21.33
2019-01-19T20:52:11.760Z,23.27
2019-01-19T20:54:55.733Z,21.20
2019-01-19T20:57:31.547Z,21.60
2019-01-19T21:00:13.748Z,23.00
2019-01-19T21:02:55.587Z,23.97
2019-01-19T21:05:28.539Z,22.50
2019-01-19T21:08:03.328Z,22.03
2019-01-19T21:10:35.495Z,23.80
2019-01-19T21:13:06.192Z,23.83
2019-01-19T21:15:36.722Z,24.87
2019-01-19T21:18:07.134Z,25.73
2019-01-19T21:20:39.480Z,24.17
2019-01-19T21:23:12.237Z,22.73
2019-01-19T21:25:49.821Z,23.40
2019-01-19T21:28:25.374Z,24.63
2019-01-19T21:30:54.144Z,24.57
2019-01-19T21:33:24.623Z,25.00
2019-01-19T21:36:06.071Z,23.67
2019-01-19T21:38:40.724Z,26.13
2019-01-19T21:41:20.810Z,24.17
2019-01-19T21:43:58.827Z,25.30
2019-01-19T21:46:30.698Z,23.57
2019-01-19T21:49:04.201Z,24.83
2019-01-19T21:51:40.149Z,24.13
2019-01-19T21:54:09.530Z,24.13
2019-01-19T21:56:45.883Z,25.63
2019-01-19T21:59:17.556Z,24.60
2019-01-19T22:01:55.647Z,24.90
2019-01-19T22:04:34.521Z,24.73
2019-01-19T22:07:06.932Z,22.63
2019-01-19T22:09:42.709Z,23.33
2019-01-19T22:12:14.890Z,24.50
2019-01-19T22:14:54.194Z,23.23
2019-01-19T22:17:26.048Z,24.10
2019-01-19T22:20:00.157Z,24.03
2019-01-19T22:22:30.968Z,23.27
2019-01-19T22:25:06.134Z,23.10
2019-01-19T22:27:41.187Z,24.97
2019-01-19T22:33:05.104Z,23.30
2019-01-19T22:35:39.205Z,25.40
2019-01-19T22:38:29.847Z,25.20
2019-01-19T22:41:09.319Z,25.67
2019-01-19T22:43:42.203Z,26.50
2019-01-19T22:46:12.902Z,27.23
2019-01-19T22:48:51.103Z,24.13
2019-01-19T22:51:21.568Z,25.77
2019-01-19T22:53:52.436Z,25.47
2019-01-19T22:56:22.756Z,23.50
2019-01-19T22:58:53.514Z,25.97
2019-01-19T23:01:48.696Z,24.63
2019-01-19T23:04:22.849Z,25.77
2019-01-19T23:07:02.410Z,24.33
2019-01-19T23:09:35.127Z,25.73
2019-01-19T23:12:06.952Z,23.87
2019-01-19T23:14:40.125Z,23.97
2019-01-19T23:17:13.987Z,25.37
2019-01-19T23:19:51.865Z,24.07
2019-01-19T23:22:23.800Z,25.20
2019-01-19T23:24:57.436Z,25.43
2019-01-19T23:27:28.156Z,24.17
2019-01-19T23:30:02.543Z,24.83
2019-01-19T23:32:32.832Z,24.13
2019-01-19T23:35:12.744Z,24.67
2019-01-19T23:37:51.950Z,25.07
2019-01-19T23:40:22.257Z,23.33
2019-01-19T23:43:08.048Z,23.97
2019-01-19T23:45:38.734Z,24.60
2019-01-19T23:48:09.413Z,24.67
2019-01-19T23:50:45.471Z,25.07
2019-01-19T23:53:29.544Z,23.70
2019-01-19T23:55:59.983Z,24.67
2019-01-19T23:58:30.782Z,23.97
